createdAt,value
2022-08-17T00:04:19.662Z,100.00
2022-08-17T00:09:22.615Z,100.00
2022-08-17T00:14:25.286Z,100.00
2022-08-17T00:19:28.027Z,100.00
2022-08-17T00:24:31.194Z,100.00
2022-08-17T00:29:34.042Z,100.00
2022-08-17T00:34:36.763Z,100.00
2022-08-17T00:39:39.610Z,100.00
2022-08-17T00:44:42.331Z,100.00
2022-08-17T00:49:44.980Z,100.00
2022-08-17T00:54:48.815Z,100.00
2022-08-17T01:00:02.014Z,100.00
2022-08-17T01:05:08.258Z,100.00
2022-08-17T01:11:00.379Z,100.00
2022-08-17T01:15:38.559Z,100.00
2022-08-17T01:21:03.450Z,99.14
2022-08-17T01:26:06.933Z,96.78
2022-08-17T01:31:10.311Z,93.25
2022-08-17T01:36:13.058Z,88.23
2022-08-17T01:41:16.919Z,87.50
2022-08-17T01:46:27.575Z,86.08
2022-08-17T01:51:33.210Z,86.31
2022-08-17T01:56:38.701Z,85.99
2022-08-17T02:01:41.400Z,85.16
2022-08-17T02:06:52.441Z,84.18
2022-08-17T02:11:59.597Z,82.65
2022-08-17T02:17:02.361Z,82.19
2022-08-17T02:22:05.189Z,81.33
2022-08-17T02:27:08.011Z,80.77
2022-08-17T02:32:25.478Z,79.95
2022-08-17T02:37:31.755Z,78.67
2022-08-17T02:42:40.099Z,76.33
2022-08-17T02:47:43.903Z,77.08
2022-08-17T02:52:50.163Z,76.53
2022-08-17T02:58:05.470Z,77.28
2022-08-17T03:03:11.114Z,76.45
2022-08-17T03:08:14.360Z,77.40
2022-08-17T03:13:17.353Z,76.31
2022-08-17T03:18:25.661Z,76.11
2022-08-17T03:23:31.389Z,75.45
2022-08-17T03:28:35.234Z,72.39
2022-08-17T03:33:38.076Z,70.66
2022-08-17T03:38:40.847Z,69.02
2022-08-17T03:43:44.205Z,68.59
2022-08-17T03:49:05.522Z,67.90
2022-08-17T03:54:27.807Z,69.36
2022-08-17T03:59:31.559Z,69.23
2022-08-17T04:04:34.614Z,68.30
2022-08-17T04:09:37.423Z,67.42
2022-08-17T04:14:51.811Z,65.04
2022-08-17T04:19:57.750Z,62.35
2022-08-17T04:25:06.057Z,62.22
2022-08-17T04:30:09.504Z,61.21
2022-08-17T04:35:12.427Z,60.71
2022-08-17T04:40:33.428Z,59.92
2022-08-17T04:45:55.226Z,61.16
2022-08-17T04:51:00.363Z,61.70
2022-08-17T04:56:03.362Z,62.32
2022-08-17T05:01:07.461Z,61.77
2022-08-17T05:06:10.392Z,60.27
2022-08-17T05:11:13.157Z,57.71
2022-08-17T05:16:16.182Z,56.33
2022-08-17T05:21:20.125Z,55.93
2022-08-17T05:26:26.124Z,56.22
2022-08-17T05:31:30.632Z,55.52
2022-08-17T05:36:37.870Z,54.47
2022-08-17T05:41:48.355Z,54.70
2022-08-17T05:46:52.723Z,55.13
2022-08-17T05:52:42.941Z,55.15
2022-08-17T05:57:53.654Z,52.64
2022-08-17T06:03:36.631Z,53.20
2022-08-17T06:08:46.366Z,50.68
2022-08-17T06:14:09.631Z,49.04
2022-08-17T06:19:26.332Z,48.10
2022-08-17T06:24:53.679Z,48.16
2022-08-17T06:30:02.801Z,47.24
2022-08-17T06:35:11.030Z,49.21
2022-08-17T06:40:28.901Z,50.00
2022-08-17T06:45:40.106Z,51.91
2022-08-17T06:50:47.781Z,51.92
2022-08-17T06:56:09.370Z,51.19
2022-08-17T07:01:18.694Z,49.93
2022-08-17T07:06:23.897Z,48.47
2022-08-17T07:11:33.823Z,48.06
2022-08-17T07:16:44.392Z,47.24
2022-08-17T07:21:58.297Z,49.34
2022-08-17T07:27:11.445Z,50.90
2022-08-17T07:32:18.940Z,49.96
2022-08-17T07:37:21.675Z,48.42
2022-08-17T07:42:28.977Z,49.58
2022-08-17T07:47:50.393Z,52.12
2022-08-17T07:52:53.414Z,53.55
2022-08-17T07:57:58.641Z,54.13
2022-08-17T08:03:34.501Z,55.38
2022-08-17T08:08:44.645Z,56.03
2022-08-17T08:13:50.206Z,56.71
2022-08-17T08:18:59.089Z,58.02
2022-08-17T08:24:30.965Z,58.33
2022-08-17T08:29:45.988Z,58.45
2022-08-17T08:35:07.118Z,57.44
2022-08-17T08:40:34.240Z,55.00
2022-08-17T08:46:08.811Z,54.47
2022-08-17T08:51:47.774Z,54.35
2022-08-17T08:57:23.146Z,55.49
2022-08-17T09:02:45.857Z,56.88
2022-08-17T09:07:57.399Z,58.55
2022-08-17T09:13:22.519Z,60.46
2022-08-17T09:19:02.914Z,62.78
2022-08-17T09:24:05.409Z,65.71
2022-08-17T09:29:10.406Z,68.20
2022-08-17T09:34:21.591Z,69.08
2022-08-17T09:39:35.597Z,69.10
2022-08-17T09:45:01.752Z,69.70
2022-08-17T09:51:01.564Z,70.91
2022-08-17T09:56:03.487Z,70.25
2022-08-17T10:01:32.103Z,68.90
2022-08-17T10:06:48.279Z,68.58
2022-08-17T10:12:17.106Z,68.74
2022-08-17T10:17:26.488Z,70.39
2022-08-17T10:23:02.839Z,71.27
2022-08-17T10:28:09.793Z,71.10
2022-08-17T10:33:28.822Z,69.87
2022-08-17T10:38:38.250Z,68.50
2022-08-17T10:44:39.608Z,67.08
2022-08-17T10:49:29.777Z,64.86
2022-08-17T10:54:38.766Z,63.13
2022-08-17T10:59:42.326Z,61.32
2022-08-17T11:05:14.426Z,60.77
2022-08-17T11:10:25.892Z,60.24
2022-08-17T11:15:41.673Z,60.87
2022-08-17T11:21:21.526Z,60.51
2022-08-17T11:26:30.723Z,60.50
2022-08-17T11:31:46.953Z,60.78
2022-08-17T11:37:19.037Z,61.85
2022-08-17T11:43:00.563Z,63.17
2022-08-17T11:48:34.129Z,63.86
2022-08-17T11:53:39.989Z,64.19
2022-08-17T11:58:47.333Z,64.55
2022-08-17T12:09:45.405Z,64.91
2022-08-17T12:15:11.915Z,65.53
2022-08-17T12:20:22.531Z,65.63
2022-08-17T12:25:52.084Z,65.63
2022-08-17T12:31:08.611Z,65.76
2022-08-17T12:36:21.759Z,66.30
2022-08-17T12:41:43.699Z,66.64
2022-08-17T12:46:56.794Z,67.20
2022-08-17T12:52:19.984Z,67.56
2022-08-17T12:57:34.543Z,67.89
2022-08-17T13:02:51.232Z,68.64
2022-08-17T13:07:57.109Z,69.14
2022-08-17T13:13:07.764Z,69.77
2022-08-17T13:18:42.402Z,70.80
2022-08-17T13:24:10.051Z,71.73
2022-08-17T13:29:35.183Z,71.73
2022-08-17T13:35:07.764Z,72.13
2022-08-17T13:40:12.248Z,72.70
2022-08-17T13:45:39.602Z,73.68
2022-08-17T13:50:51.149Z,74.25
2022-08-17T13:56:04.629Z,74.68
2022-08-17T14:01:49.675Z,75.25
2022-08-17T14:07:22.445Z,75.58
2022-08-17T14:12:32.048Z,75.96
2022-08-17T14:17:39.014Z,76.64
2022-08-17T14:22:45.474Z,76.88
2022-08-17T14:27:53.445Z,77.68
2022-08-17T14:33:25.939Z,78.22
2022-08-17T14:38:28.809Z,78.73
2022-08-17T14:43:35.693Z,78.96
2022-08-17T14:48:40.986Z,79.89
2022-08-17T14:53:43.864Z,80.69
2022-08-17T14:58:46.770Z,81.00
2022-08-17T15:03:49.510Z,81.09
2022-08-17T15:08:54.615Z,81.05
2022-08-17T15:13:57.682Z,81.40
2022-08-17T15:19:00.626Z,81.22
2022-08-17T15:24:04.643Z,81.38
2022-08-17T15:29:10.595Z,81.54
2022-08-17T15:34:15.906Z,81.71
2022-08-17T15:39:19.678Z,81.58
2022-08-17T15:44:22.885Z,81.58
2022-08-17T15:49:35.447Z,81.75
2022-08-17T15:54:40.478Z,81.55
2022-08-17T15:59:50.785Z,81.44
2022-08-17T16:05:13.742Z,81.56
2022-08-17T16:10:19.251Z,81.49
2022-08-17T16:15:22.131Z,81.65
2022-08-17T16:20:28.536Z,81.75
2022-08-17T16:25:47.210Z,82.07
2022-08-17T16:30:56.345Z,82.59
2022-08-17T16:35:59.299Z,82.88
2022-08-17T16:41:03.301Z,83.41
2022-08-17T16:46:05.989Z,84.15
2022-08-17T16:51:08.889Z,84.44
2022-08-17T16:56:11.596Z,84.82
2022-08-17T17:01:16.113Z,85.26
2022-08-17T17:06:34.313Z,85.48
2022-08-17T17:11:53.395Z,85.79
2022-08-17T17:17:33.897Z,85.82
2022-08-17T17:22:51.228Z,86.32
2022-08-17T17:28:11.856Z,86.84
2022-08-17T17:33:22.926Z,86.94
2022-08-17T17:38:29.511Z,87.49
2022-08-17T17:43:40.353Z,87.50
2022-08-17T17:48:43.449Z,88.16
2022-08-17T17:54:11.597Z,88.33
2022-08-17T17:59:43.774Z,88.53
2022-08-17T18:04:58.803Z,88.74
2022-08-17T18:10:19.725Z,88.97
2022-08-17T18:15:37.404Z,89.00
2022-08-17T18:20:46.590Z,88.96
2022-08-17T18:25:59.071Z,89.20
2022-08-17T18:31:11.040Z,89.27
2022-08-17T18:36:28.180Z,89.67
2022-08-17T18:41:41.057Z,89.59
2022-08-17T18:46:43.758Z,89.68
2022-08-17T18:51:47.046Z,89.98
2022-08-17T18:57:00.135Z,90.21
2022-08-17T19:07:41.408Z,90.46
2022-08-17T19:12:53.523Z,90.70
2022-08-17T19:18:01.745Z,90.36
2022-08-17T19:23:15.459Z,91.07
2022-08-17T19:28:35.316Z,91.00
2022-08-17T19:33:39.250Z,90.78
2022-08-17T19:38:49.143Z,90.79
2022-08-17T19:44:07.060Z,90.72
2022-08-17T19:49:41.041Z,90.66
2022-08-17T19:54:55.753Z,90.78
2022-08-17T20:00:31.660Z,90.86
2022-08-17T20:06:12.148Z,90.86
2022-08-17T20:11:25.550Z,91.47
2022-08-17T20:16:28.370Z,91.62
2022-08-17T20:21:47.076Z,91.93
2022-08-17T20:26:58.532Z,91.82
2022-08-17T20:32:01.776Z,91.35
2022-08-17T20:37:07.306Z,91.32
2022-08-17T20:42:23.275Z,91.75
2022-08-17T20:47:34.071Z,91.67
2022-08-17T20:52:57.221Z,91.75
2022-08-17T20:58:23.464Z,91.94
2022-08-17T21:03:39.941Z,92.05
2022-08-17T21:09:13.731Z,92.03
2022-08-17T21:14:28.642Z,91.92
2022-08-17T21:20:12.872Z,92.12
2022-08-17T21:25:15.629Z,92.20
2022-08-17T21:30:26.240Z,92.21
2022-08-17T21:35:58.737Z,92.39
2022-08-17T21:41:04.148Z,92.23
2022-08-17T21:46:12.852Z,92.22
2022-08-17T21:51:24.638Z,92.57
2022-08-17T21:56:41.402Z,92.60
2022-08-17T22:01:44.126Z,92.80
2022-08-17T22:06:57.071Z,93.16
2022-08-17T22:12:20.900Z,93.15
2022-08-17T22:17:40.330Z,93.38
2022-08-17T22:23:04.269Z,94.03
2022-08-17T22:28:10.160Z,94.59
2022-08-17T22:33:33.250Z,95.04
2022-08-17T22:38:36.318Z,95.14
2022-08-17T22:43:44.690Z,95.45
2022-08-17T22:48:51.848Z,95.73
2022-08-17T22:54:34.043Z,95.74
2022-08-17T22:59:45.590Z,96.20
2022-08-17T23:04:54.767Z,96.05
2022-08-17T23:09:57.491Z,95.84
2022-08-17T23:15:02.067Z,95.77
2022-08-17T23:20:08.660Z,95.72
2022-08-17T23:25:23.926Z,95.19
2022-08-17T23:30:28.816Z,95.34
2022-08-17T23:35:39.053Z,94.77
2022-08-17T23:40:42.373Z,94.36
2022-08-17T23:45:45.133Z,94.04
2022-08-17T23:50:52.054Z,93.75
2022-08-17T23:56:09.574Z,93.73
